Friday, October 19, 2018, 11:45 AM EDT
Back to Local

KDAW, Skyhaven Airport

Location: Rochester, NH, United States Lat: 43.283
Local Time: 11:45 AM EDT (15:45 GMT) Lon: -70.917
Time Zone: US/Eastern Elev: 321 ft

Show me the last for .
Show Decoded

2018-10-19 10:51 METAR KDAW 191451Z AUTO 10SM CLR 09/01 A3012 RMK AO2 SLP198 T00890011 58021 =
2018-10-19 09:51 METAR KDAW 191351Z AUTO VRB04KT 10SM CLR 06/00 A3015 RMK AO2 SLP210 T00610000 =
2018-10-19 08:51 METAR KDAW 191251Z AUTO 00000KT 10SM CLR 03/M01 A3017 RMK AO2 SLP219 T00281011 =
2018-10-19 07:51 METAR KDAW 191151Z AUTO VRB03KT 10SM CLR 01/M03 A3018 RMK AO2 SLP220 T00061028
                 10006 21022 56005 =
2018-10-19 06:51 METAR KDAW 191051Z AUTO 00000KT 10SM CLR M02/M04 A3018 RMK AO2 SLP221 T10171039
                 =
2018-10-19 05:51 METAR KDAW 190951Z AUTO 00000KT 10SM CLR M01/M04 A3018 RMK AO2 SLP221 T10111039
                 =
2018-10-19 04:51 METAR KDAW 190851Z AUTO 00000KT 10SM BKN080 M01/M04 A3019 RMK AO2 SLP224
                 T10111039 56014 =
2018-10-19 03:51 METAR KDAW 190751Z AUTO 00000KT 10SM BKN090 M01/M05 A3021 RMK AO2 SLP228
                 T10061050 =
2018-10-19 02:51 METAR KDAW 190651Z AUTO 00000KT 10SM FEW090 M01/M04 A3021 RMK AO2 SLP231
                 T10111044 =
2018-10-19 01:51 METAR KDAW 190551Z AUTO 00000KT 10SM BKN075 OVC100 M01/M05 A3023 RMK AO2 SLP237
                 T10061050 10017 21028 53002 =
2018-10-19 00:51 METAR KDAW 190451Z AUTO 00000KT 10SM BKN075 M01/M05 A3023 RMK AO2 SLP236
                 T10111050 400611017 =
2018-10-18 23:51 METAR KDAW 190351Z AUTO 00000KT 10SM CLR M02/M05 A3023 RMK AO2 SLP237 T10171050
                 =
2018-10-18 22:51 METAR KDAW 190251Z AUTO 00000KT 10SM CLR M01/M06 A3023 RMK AO2 SLP236 T10111056
                 50005 =
2018-10-18 21:51 METAR KDAW 190151Z AUTO 00000KT 10SM CLR M01/M05 A3023 RMK AO2 SLP237 T10111050
                 =
2018-10-18 20:51 METAR KDAW 190051Z AUTO 00000KT 10SM CLR 00/M04 A3022 RMK AO2 SLP234 T00001044 =
2018-10-18 19:51 METAR KDAW 182351Z AUTO 30004KT 10SM CLR 02/M07 A3021 RMK AO2 SLP232 T00221072
                 10061 20006 51015 =
2018-10-18 18:51 METAR KDAW 182251Z AUTO 35003KT 10SM CLR 02/M06 A3021 RMK AO2 SLP231 T00171061 =
2018-10-18 17:51 METAR KDAW 182151Z AUTO 00000KT 10SM CLR 04/M07 A3019 RMK AO2 SLP223 T00391072 =
2018-10-18 16:51 METAR KDAW 182051Z AUTO 31010G18KT 10SM CLR 05/M08 A3017 RMK AO2 SLP216
                 T00501078 53006 =
2018-10-18 15:51 METAR KDAW 181951Z AUTO 30016G28KT 10SM CLR 06/M08 A3015 RMK AO2 PK WND
                 32028/1945 SLP210 T00561083 =
2018-10-18 14:51 METAR KDAW 181851Z AUTO 30012G25KT 10SM FEW065 06/M08 A3015 RMK AO2 PK WND
                 31027/1806 SLP211 T00561083 =
2018-10-18 13:51 METAR KDAW 181751Z AUTO 30009G20KT 10SM SCT060 06/M07 A3015 RMK AO2 PK WND
                 33026/1701 SLP209 T00611072 10061 20017 50002 =
2018-10-18 12:51 METAR KDAW 181651Z AUTO 30014G21KT 10SM CLR 05/M08 A3015 RMK AO2 PK WND
                 32031/1601 SLP210 T00501078 =
2018-10-18 11:51 METAR KDAW 181551Z AUTO 31016G23KT 10SM FEW055 05/M07 A3015 RMK AO2 PK WND
                 29030/1532 SLP211 T00501067 =

Support USWX by starting your Amazon purchase here.